sensor_id;sensor_type;location;lat;lon;timestamp;P1;durP1;ratioP1;P2;durP2;ratioP2
38901;SDS011;24661;53.566;9.910;2023-05-10T00:00:41;6.90;;;3.03;;
38901;SDS011;24661;53.566;9.910;2023-05-10T00:03:07;3.40;;;2.63;;
38901;SDS011;24661;53.566;9.910;2023-05-10T00:05:32;8.80;;;3.30;;
38901;SDS011;24661;53.566;9.910;2023-05-10T00:07:58;4.87;;;3.23;;
38901;SDS011;24661;53.566;9.910;2023-05-10T00:10:24;9.37;;;4.23;;
38901;SDS011;24661;53.566;9.910;2023-05-10T00:12:49;6.63;;;3.47;;
38901;SDS011;24661;53.566;9.910;2023-05-10T00:15:14;6.97;;;3.97;;
38901;SDS011;24661;53.566;9.910;2023-05-10T00:17:40;4.27;;;3.07;;
38901;SDS011;24661;53.566;9.910;2023-05-10T00:20:06;7.33;;;3.00;;
38901;SDS011;24661;53.566;9.910;2023-05-10T00:22:32;7.70;;;3.27;;
38901;SDS011;24661;53.566;9.910;2023-05-10T00:24:58;10.83;;;3.60;;
38901;SDS011;24661;53.566;9.910;2023-05-10T00:27:24;4.33;;;3.53;;
38901;SDS011;24661;53.566;9.910;2023-05-10T00:29:50;4.20;;;3.40;;
38901;SDS011;24661;53.566;9.910;2023-05-10T00:32:15;11.07;;;3.80;;
38901;SDS011;24661;53.566;9.910;2023-05-10T00:34:41;8.67;;;3.07;;
38901;SDS011;24661;53.566;9.910;2023-05-10T00:37:06;4.20;;;3.10;;
38901;SDS011;24661;53.566;9.910;2023-05-10T00:39:32;3.93;;;3.30;;
38901;SDS011;24661;53.566;9.910;2023-05-10T00:41:58;6.23;;;3.33;;
38901;SDS011;24661;53.566;9.910;2023-05-10T00:44:24;5.77;;;3.63;;
38901;SDS011;24661;53.566;9.910;2023-05-10T00:46:50;12.23;;;3.33;;
38901;SDS011;24661;53.566;9.910;2023-05-10T00:49:16;10.07;;;3.33;;
38901;SDS011;24661;53.566;9.910;2023-05-10T00:51:41;3.87;;;3.10;;
38901;SDS011;24661;53.566;9.910;2023-05-10T00:54:10;7.23;;;3.63;;
38901;SDS011;24661;53.566;9.910;2023-05-10T00:56:38;4.73;;;2.97;;
38901;SDS011;24661;53.566;9.910;2023-05-10T00:59:05;4.03;;;3.30;;
38901;SDS011;24661;53.566;9.910;2023-05-10T01:01:30;4.27;;;3.40;;
38901;SDS011;24661;53.566;9.910;2023-05-10T01:03:56;3.50;;;3.00;;
38901;SDS011;24661;53.566;9.910;2023-05-10T01:06:23;6.13;;;2.90;;
38901;SDS011;24661;53.566;9.910;2023-05-10T01:08:49;7.73;;;4.63;;
38901;SDS011;24661;53.566;9.910;2023-05-10T01:11:15;3.30;;;3.00;;
38901;SDS011;24661;53.566;9.910;2023-05-10T01:13:41;5.67;;;3.50;;
38901;SDS011;24661;53.566;9.910;2023-05-10T01:16:08;6.07;;;3.03;;
38901;SDS011;24661;53.566;9.910;2023-05-10T01:18:34;5.93;;;2.80;;
38901;SDS011;24661;53.566;9.910;2023-05-10T01:34:42;9.87;;;3.33;;
38901;SDS011;24661;53.566;9.910;2023-05-10T01:37:29;5.00;;;3.23;;
38901;SDS011;24661;53.566;9.910;2023-05-10T01:40:23;12.50;;;3.63;;
38901;SDS011;24661;53.566;9.910;2023-05-10T01:42:59;7.93;;;3.90;;
38901;SDS011;24661;53.566;9.910;2023-05-10T01:45:31;8.57;;;3.30;;
38901;SDS011;24661;53.566;9.910;2023-05-10T01:48:09;7.77;;;3.27;;
38901;SDS011;24661;53.566;9.910;2023-05-10T01:50:36;7.33;;;3.73;;
38901;SDS011;24661;53.566;9.910;2023-05-10T01:53:08;5.70;;;3.57;;
38901;SDS011;24661;53.566;9.910;2023-05-10T01:55:39;5.00;;;3.50;;
38901;SDS011;24661;53.566;9.910;2023-05-10T01:58:15;7.17;;;3.90;;
38901;SDS011;24661;53.566;9.910;2023-05-10T02:00:45;5.43;;;3.60;;
38901;SDS011;24661;53.566;9.910;2023-05-10T02:03:12;5.80;;;3.10;;
38901;SDS011;24661;53.566;9.910;2023-05-10T02:05:39;7.00;;;3.17;;
38901;SDS011;24661;53.566;9.910;2023-05-10T02:08:07;5.77;;;4.37;;
38901;SDS011;24661;53.566;9.910;2023-05-10T02:10:36;5.20;;;3.53;;
38901;SDS011;24661;53.566;9.910;2023-05-10T02:13:02;6.27;;;3.50;;
38901;SDS011;24661;53.566;9.910;2023-05-10T02:15:31;4.93;;;2.97;;
38901;SDS011;24661;53.566;9.910;2023-05-10T02:17:57;7.43;;;3.57;;
38901;SDS011;24661;53.566;9.910;2023-05-10T02:20:25;9.57;;;3.37;;
38901;SDS011;24661;53.566;9.910;2023-05-10T02:22:52;4.77;;;3.07;;
38901;SDS011;24661;53.566;9.910;2023-05-10T02:25:21;9.00;;;4.27;;
38901;SDS011;24661;53.566;9.910;2023-05-10T02:27:48;8.30;;;3.97;;
38901;SDS011;24661;53.566;9.910;2023-05-10T02:30:15;9.13;;;3.40;;
38901;SDS011;24661;53.566;9.910;2023-05-10T02:32:42;5.13;;;3.80;;
38901;SDS011;24661;53.566;9.910;2023-05-10T02:35:09;4.90;;;3.30;;
38901;SDS011;24661;53.566;9.910;2023-05-10T02:37:36;4.97;;;3.70;;
38901;SDS011;24661;53.566;9.910;2023-05-10T02:40:03;7.40;;;3.67;;
38901;SDS011;24661;53.566;9.910;2023-05-10T02:42:32;8.17;;;3.60;;
38901;SDS011;24661;53.566;9.910;2023-05-10T02:45:01;6.80;;;3.20;;
38901;SDS011;24661;53.566;9.910;2023-05-10T02:47:31;6.03;;;3.60;;
38901;SDS011;24661;53.566;9.910;2023-05-10T02:49:57;7.47;;;4.00;;
38901;SDS011;24661;53.566;9.910;2023-05-10T02:52:23;8.53;;;3.77;;
38901;SDS011;24661;53.566;9.910;2023-05-10T02:54:54;7.87;;;3.73;;
38901;SDS011;24661;53.566;9.910;2023-05-10T02:57:25;8.43;;;3.10;;
38901;SDS011;24661;53.566;9.910;2023-05-10T02:59:53;7.23;;;3.27;;
38901;SDS011;24661;53.566;9.910;2023-05-10T03:02:20;5.87;;;3.67;;
38901;SDS011;24661;53.566;9.910;2023-05-10T03:04:45;8.30;;;3.50;;
38901;SDS011;24661;53.566;9.910;2023-05-10T03:07:11;6.83;;;3.57;;
38901;SDS011;24661;53.566;9.910;2023-05-10T03:09:37;8.10;;;4.00;;
38901;SDS011;24661;53.566;9.910;2023-05-10T03:17:41;6.00;;;3.73;;
38901;SDS011;24661;53.566;9.910;2023-05-10T03:20:14;5.03;;;3.50;;
38901;SDS011;24661;53.566;9.910;2023-05-10T03:22:55;5.47;;;3.57;;
38901;SDS011;24661;53.566;9.910;2023-05-10T03:25:26;5.10;;;3.70;;
38901;SDS011;24661;53.566;9.910;2023-05-10T03:27:53;4.23;;;3.10;;
38901;SDS011;24661;53.566;9.910;2023-05-10T03:30:19;7.33;;;3.60;;
38901;SDS011;24661;53.566;9.910;2023-05-10T03:32:45;5.27;;;3.23;;
38901;SDS011;24661;53.566;9.910;2023-05-10T03:35:11;6.97;;;3.50;;
38901;SDS011;24661;53.566;9.910;2023-05-10T03:37:38;6.73;;;4.20;;
38901;SDS011;24661;53.566;9.910;2023-05-10T03:40:04;7.67;;;3.70;;
38901;SDS011;24661;53.566;9.910;2023-05-10T03:42:30;5.87;;;3.73;;
38901;SDS011;24661;53.566;9.910;2023-05-10T03:44:56;5.30;;;3.90;;
38901;SDS011;24661;53.566;9.910;2023-05-10T03:47:22;10.07;;;3.20;;
38901;SDS011;24661;53.566;9.910;2023-05-10T03:49:48;7.13;;;3.57;;
38901;SDS011;24661;53.566;9.910;2023-05-10T03:52:14;6.03;;;3.70;;
38901;SDS011;24661;53.566;9.910;2023-05-10T03:54:40;8.80;;;3.87;;
38901;SDS011;24661;53.566;9.910;2023-05-10T03:57:06;7.57;;;4.43;;
38901;SDS011;24661;53.566;9.910;2023-05-10T03:59:31;5.87;;;3.87;;
38901;SDS011;24661;53.566;9.910;2023-05-10T04:01:57;10.33;;;3.90;;
38901;SDS011;24661;53.566;9.910;2023-05-10T04:04:23;6.30;;;3.60;;
38901;SDS011;24661;53.566;9.910;2023-05-10T04:06:48;8.27;;;3.73;;
38901;SDS011;24661;53.566;9.910;2023-05-10T04:09:14;5.83;;;3.80;;
38901;SDS011;24661;53.566;9.910;2023-05-10T04:11:40;6.40;;;4.17;;
38901;SDS011;24661;53.566;9.910;2023-05-10T04:14:05;5.93;;;3.83;;
38901;SDS011;24661;53.566;9.910;2023-05-10T04:16:31;6.57;;;3.90;;
38901;SDS011;24661;53.566;9.910;2023-05-10T04:18:57;12.07;;;4.20;;
38901;SDS011;24661;53.566;9.910;2023-05-10T04:21:24;8.30;;;4.00;;
38901;SDS011;24661;53.566;9.910;2023-05-10T04:23:50;7.60;;;3.53;;
38901;SDS011;24661;53.566;9.910;2023-05-10T04:26:16;5.70;;;3.60;;
38901;SDS011;24661;53.566;9.910;2023-05-10T04:28:41;6.87;;;3.97;;
38901;SDS011;24661;53.566;9.910;2023-05-10T04:31:08;5.60;;;3.87;;
38901;SDS011;24661;53.566;9.910;2023-05-10T04:33:34;9.97;;;4.10;;
38901;SDS011;24661;53.566;9.910;2023-05-10T04:36:00;9.10;;;4.13;;
38901;SDS011;24661;53.566;9.910;2023-05-10T04:38:26;8.27;;;4.20;;
38901;SDS011;24661;53.566;9.910;2023-05-10T04:40:52;7.00;;;4.07;;
38901;SDS011;24661;53.566;9.910;2023-05-10T04:43:18;9.47;;;3.83;;
38901;SDS011;24661;53.566;9.910;2023-05-10T04:45:44;8.97;;;4.73;;
38901;SDS011;24661;53.566;9.910;2023-05-10T04:48:09;7.27;;;4.40;;
38901;SDS011;24661;53.566;9.910;2023-05-10T04:50:35;4.47;;;3.70;;
38901;SDS011;24661;53.566;9.910;2023-05-10T04:53:00;12.63;;;4.13;;
38901;SDS011;24661;53.566;9.910;2023-05-10T04:55:26;9.50;;;3.50;;
38901;SDS011;24661;53.566;9.910;2023-05-10T04:57:52;7.30;;;3.53;;
38901;SDS011;24661;53.566;9.910;2023-05-10T05:00:18;7.27;;;4.80;;
38901;SDS011;24661;53.566;9.910;2023-05-10T05:02:44;11.90;;;4.30;;
38901;SDS011;24661;53.566;9.910;2023-05-10T05:05:10;8.03;;;4.00;;
38901;SDS011;24661;53.566;9.910;2023-05-10T05:07:36;6.70;;;3.57;;
38901;SDS011;24661;53.566;9.910;2023-05-10T05:10:03;7.10;;;4.57;;
38901;SDS011;24661;53.566;9.910;2023-05-10T05:12:32;7.83;;;4.17;;
38901;SDS011;24661;53.566;9.910;2023-05-10T05:14:58;6.97;;;3.77;;
38901;SDS011;24661;53.566;9.910;2023-05-10T05:17:24;6.53;;;3.83;;
38901;SDS011;24661;53.566;9.910;2023-05-10T05:19:49;6.43;;;3.57;;
38901;SDS011;24661;53.566;9.910;2023-05-10T05:22:15;6.37;;;3.80;;
38901;SDS011;24661;53.566;9.910;2023-05-10T05:24:40;8.73;;;3.83;;
38901;SDS011;24661;53.566;9.910;2023-05-10T05:27:06;13.03;;;4.00;;
38901;SDS011;24661;53.566;9.910;2023-05-10T05:29:32;6.67;;;3.90;;
38901;SDS011;24661;53.566;9.910;2023-05-10T05:31:57;6.27;;;3.93;;
38901;SDS011;24661;53.566;9.910;2023-05-10T05:34:23;6.97;;;3.57;;
38901;SDS011;24661;53.566;9.910;2023-05-10T05:36:49;6.90;;;4.90;;
38901;SDS011;24661;53.566;9.910;2023-05-10T05:39:16;11.77;;;4.10;;
38901;SDS011;24661;53.566;9.910;2023-05-10T05:41:41;12.87;;;4.73;;
38901;SDS011;24661;53.566;9.910;2023-05-10T05:44:07;4.40;;;3.57;;
38901;SDS011;24661;53.566;9.910;2023-05-10T05:46:33;10.27;;;4.17;;
38901;SDS011;24661;53.566;9.910;2023-05-10T05:48:58;4.60;;;3.70;;
38901;SDS011;24661;53.566;9.910;2023-05-10T05:51:24;6.50;;;4.17;;
38901;SDS011;24661;53.566;9.910;2023-05-10T05:53:50;8.50;;;3.87;;
38901;SDS011;24661;53.566;9.910;2023-05-10T05:56:15;6.27;;;3.73;;
38901;SDS011;24661;53.566;9.910;2023-05-10T05:58:42;4.27;;;3.83;;
38901;SDS011;24661;53.566;9.910;2023-05-10T06:01:08;7.67;;;3.70;;
38901;SDS011;24661;53.566;9.910;2023-05-10T06:03:34;6.00;;;3.87;;
38901;SDS011;24661;53.566;9.910;2023-05-10T06:05:59;5.93;;;3.93;;
38901;SDS011;24661;53.566;9.910;2023-05-10T06:08:25;4.53;;;3.77;;
38901;SDS011;24661;53.566;9.910;2023-05-10T06:10:50;5.57;;;3.60;;
38901;SDS011;24661;53.566;9.910;2023-05-10T06:13:16;6.90;;;3.67;;
38901;SDS011;24661;53.566;9.910;2023-05-10T06:15:42;8.43;;;4.00;;
38901;SDS011;24661;53.566;9.910;2023-05-10T06:18:07;6.30;;;4.20;;
38901;SDS011;24661;53.566;9.910;2023-05-10T06:20:33;5.50;;;3.60;;
38901;SDS011;24661;53.566;9.910;2023-05-10T06:22:58;6.27;;;3.80;;
38901;SDS011;24661;53.566;9.910;2023-05-10T06:25:24;5.00;;;3.63;;
38901;SDS011;24661;53.566;9.910;2023-05-10T06:27:50;7.40;;;3.87;;
38901;SDS011;24661;53.566;9.910;2023-05-10T06:30:16;8.17;;;4.23;;
38901;SDS011;24661;53.566;9.910;2023-05-10T06:32:42;7.53;;;3.50;;
38901;SDS011;24661;53.566;9.910;2023-05-10T06:35:09;13.33;;;4.33;;
38901;SDS011;24661;53.566;9.910;2023-05-10T06:37:34;9.53;;;4.20;;
38901;SDS011;24661;53.566;9.910;2023-05-10T06:40:00;5.80;;;4.07;;
38901;SDS011;24661;53.566;9.910;2023-05-10T06:42:26;5.60;;;4.23;;
38901;SDS011;24661;53.566;9.910;2023-05-10T06:44:52;13.93;;;4.27;;
38901;SDS011;24661;53.566;9.910;2023-05-10T06:47:19;6.03;;;4.33;;
38901;SDS011;24661;53.566;9.910;2023-05-10T06:49:44;5.93;;;3.80;;
38901;SDS011;24661;53.566;9.910;2023-05-10T06:52:10;3.87;;;3.47;;
38901;SDS011;24661;53.566;9.910;2023-05-10T06:54:35;7.10;;;4.00;;
38901;SDS011;24661;53.566;9.910;2023-05-10T06:57:01;13.47;;;4.40;;
38901;SDS011;24661;53.566;9.910;2023-05-10T06:59:28;10.27;;;4.40;;
38901;SDS011;24661;53.566;9.910;2023-05-10T07:01:53;9.33;;;3.97;;
38901;SDS011;24661;53.566;9.910;2023-05-10T07:04:19;7.83;;;3.93;;
38901;SDS011;24661;53.566;9.910;2023-05-10T07:06:45;3.97;;;3.57;;
38901;SDS011;24661;53.566;9.910;2023-05-10T07:09:11;7.67;;;3.60;;
38901;SDS011;24661;53.566;9.910;2023-05-10T07:11:38;4.27;;;3.77;;
38901;SDS011;24661;53.566;9.910;2023-05-10T07:14:03;5.73;;;3.90;;
38901;SDS011;24661;53.566;9.910;2023-05-10T07:16:29;4.90;;;3.67;;
38901;SDS011;24661;53.566;9.910;2023-05-10T07:18:55;4.70;;;4.00;;
38901;SDS011;24661;53.566;9.910;2023-05-10T07:21:20;5.67;;;4.23;;
38901;SDS011;24661;53.566;9.910;2023-05-10T07:23:48;6.33;;;4.07;;
38901;SDS011;24661;53.566;9.910;2023-05-10T07:26:14;9.63;;;4.00;;
38901;SDS011;24661;53.566;9.910;2023-05-10T07:28:40;6.93;;;3.90;;
38901;SDS011;24661;53.566;9.910;2023-05-10T07:31:06;4.67;;;3.60;;
38901;SDS011;24661;53.566;9.910;2023-05-10T07:33:31;6.70;;;4.10;;
38901;SDS011;24661;53.566;9.910;2023-05-10T07:35:57;5.53;;;4.10;;
38901;SDS011;24661;53.566;9.910;2023-05-10T07:38:22;5.90;;;4.00;;
38901;SDS011;24661;53.566;9.910;2023-05-10T07:40:48;7.10;;;4.17;;
38901;SDS011;24661;53.566;9.910;2023-05-10T07:43:14;7.33;;;3.60;;
38901;SDS011;24661;53.566;9.910;2023-05-10T07:45:39;4.80;;;3.70;;
38901;SDS011;24661;53.566;9.910;2023-05-10T07:48:05;6.37;;;3.97;;
38901;SDS011;24661;53.566;9.910;2023-05-10T07:50:30;5.87;;;3.77;;
38901;SDS011;24661;53.566;9.910;2023-05-10T07:52:56;9.30;;;3.77;;
38901;SDS011;24661;53.566;9.910;2023-05-10T07:55:21;5.90;;;3.80;;
38901;SDS011;24661;53.566;9.910;2023-05-10T07:57:47;7.20;;;4.03;;
38901;SDS011;24661;53.566;9.910;2023-05-10T08:00:13;7.23;;;3.90;;
38901;SDS011;24661;53.566;9.910;2023-05-10T08:02:42;6.67;;;4.00;;
38901;SDS011;24661;53.566;9.910;2023-05-10T08:05:08;5.07;;;4.10;;
38901;SDS011;24661;53.566;9.910;2023-05-10T08:07:34;4.87;;;3.60;;
38901;SDS011;24661;53.566;9.910;2023-05-10T08:10:00;9.93;;;3.73;;
38901;SDS011;24661;53.566;9.910;2023-05-10T08:12:26;4.67;;;3.70;;
38901;SDS011;24661;53.566;9.910;2023-05-10T08:14:51;5.00;;;3.80;;
38901;SDS011;24661;53.566;9.910;2023-05-10T08:17:17;9.10;;;3.87;;
38901;SDS011;24661;53.566;9.910;2023-05-10T08:19:42;7.43;;;4.50;;
38901;SDS011;24661;53.566;9.910;2023-05-10T08:22:08;6.23;;;3.70;;
38901;SDS011;24661;53.566;9.910;2023-05-10T08:24:34;12.43;;;4.27;;
38901;SDS011;24661;53.566;9.910;2023-05-10T08:27:03;11.63;;;4.70;;
38901;SDS011;24661;53.566;9.910;2023-05-10T08:29:29;9.83;;;5.03;;
38901;SDS011;24661;53.566;9.910;2023-05-10T08:31:55;8.73;;;4.40;;
38901;SDS011;24661;53.566;9.910;2023-05-10T08:34:21;12.37;;;4.93;;
38901;SDS011;24661;53.566;9.910;2023-05-10T08:36:46;6.20;;;3.20;;
38901;SDS011;24661;53.566;9.910;2023-05-10T08:39:12;5.73;;;3.50;;
38901;SDS011;24661;53.566;9.910;2023-05-10T08:41:38;6.00;;;4.17;;
38901;SDS011;24661;53.566;9.910;2023-05-10T08:44:05;8.50;;;3.50;;
38901;SDS011;24661;53.566;9.910;2023-05-10T08:46:33;6.43;;;3.70;;
38901;SDS011;24661;53.566;9.910;2023-05-10T08:49:03;7.53;;;4.03;;
38901;SDS011;24661;53.566;9.910;2023-05-10T08:51:31;5.83;;;3.70;;
38901;SDS011;24661;53.566;9.910;2023-05-10T08:54:01;10.20;;;4.30;;
38901;SDS011;24661;53.566;9.910;2023-05-10T08:56:28;6.07;;;4.30;;
38901;SDS011;24661;53.566;9.910;2023-05-10T08:58:54;6.97;;;3.50;;
38901;SDS011;24661;53.566;9.910;2023-05-10T09:01:20;4.53;;;3.23;;
38901;SDS011;24661;53.566;9.910;2023-05-10T09:03:47;7.37;;;4.07;;
38901;SDS011;24661;53.566;9.910;2023-05-10T09:06:13;5.43;;;4.00;;
38901;SDS011;24661;53.566;9.910;2023-05-10T09:08:39;5.90;;;3.43;;
38901;SDS011;24661;53.566;9.910;2023-05-10T09:11:06;8.10;;;4.20;;
38901;SDS011;24661;53.566;9.910;2023-05-10T09:13:33;6.13;;;3.97;;
38901;SDS011;24661;53.566;9.910;2023-05-10T09:16:00;5.17;;;4.67;;
38901;SDS011;24661;53.566;9.910;2023-05-10T09:18:26;6.00;;;4.20;;
38901;SDS011;24661;53.566;9.910;2023-05-10T09:20:52;7.97;;;3.57;;
38901;SDS011;24661;53.566;9.910;2023-05-10T09:23:17;7.03;;;4.20;;
38901;SDS011;24661;53.566;9.910;2023-05-10T09:25:43;6.07;;;4.03;;
38901;SDS011;24661;53.566;9.910;2023-05-10T09:28:09;7.13;;;4.07;;
38901;SDS011;24661;53.566;9.910;2023-05-10T09:30:35;6.37;;;4.73;;
38901;SDS011;24661;53.566;9.910;2023-05-10T09:33:01;5.67;;;4.40;;
38901;SDS011;24661;53.566;9.910;2023-05-10T09:35:28;4.97;;;4.27;;
38901;SDS011;24661;53.566;9.910;2023-05-10T09:37:56;4.53;;;4.03;;
38901;SDS011;24661;53.566;9.910;2023-05-10T09:40:24;9.30;;;4.70;;
38901;SDS011;24661;53.566;9.910;2023-05-10T09:45:24;6.40;;;5.40;;
38901;SDS011;24661;53.566;9.910;2023-05-10T09:47:51;9.23;;;5.07;;
38901;SDS011;24661;53.566;9.910;2023-05-10T09:50:18;8.77;;;4.30;;
38901;SDS011;24661;53.566;9.910;2023-05-10T09:55:17;7.07;;;5.40;;
38901;SDS011;24661;53.566;9.910;2023-05-10T09:57:47;11.50;;;4.93;;
38901;SDS011;24661;53.566;9.910;2023-05-10T10:00:19;8.47;;;5.60;;
38901;SDS011;24661;53.566;9.910;2023-05-10T10:02:46;10.67;;;4.70;;
38901;SDS011;24661;53.566;9.910;2023-05-10T10:05:13;9.10;;;5.90;;
38901;SDS011;24661;53.566;9.910;2023-05-10T10:07:39;9.30;;;5.57;;
38901;SDS011;24661;53.566;9.910;2023-05-10T10:10:05;7.17;;;5.77;;
38901;SDS011;24661;53.566;9.910;2023-05-10T10:12:36;10.33;;;5.67;;
38901;SDS011;24661;53.566;9.910;2023-05-10T10:15:02;8.37;;;5.87;;
38901;SDS011;24661;53.566;9.910;2023-05-10T10:17:29;10.00;;;6.10;;
38901;SDS011;24661;53.566;9.910;2023-05-10T10:19:57;7.30;;;6.30;;
38901;SDS011;24661;53.566;9.910;2023-05-10T10:22:24;7.00;;;5.73;;
38901;SDS011;24661;53.566;9.910;2023-05-10T10:24:50;10.43;;;6.50;;
38901;SDS011;24661;53.566;9.910;2023-05-10T10:29:58;11.40;;;7.47;;
38901;SDS011;24661;53.566;9.910;2023-05-10T10:35:40;10.63;;;7.30;;
38901;SDS011;24661;53.566;9.910;2023-05-10T10:38:07;10.70;;;7.03;;
38901;SDS011;24661;53.566;9.910;2023-05-10T10:40:33;7.67;;;5.87;;
38901;SDS011;24661;53.566;9.910;2023-05-10T10:48:39;8.00;;;6.57;;
38901;SDS011;24661;53.566;9.910;2023-05-10T10:51:05;10.07;;;7.17;;
38901;SDS011;24661;53.566;9.910;2023-05-10T10:53:31;8.30;;;7.37;;
38901;SDS011;24661;53.566;9.910;2023-05-10T10:56:11;11.93;;;6.87;;
38901;SDS011;24661;53.566;9.910;2023-05-10T10:58:40;11.27;;;8.00;;
38901;SDS011;24661;53.566;9.910;2023-05-10T11:01:13;9.20;;;6.33;;
38901;SDS011;24661;53.566;9.910;2023-05-10T11:03:40;8.43;;;7.53;;
38901;SDS011;24661;53.566;9.910;2023-05-10T11:08:59;8.40;;;6.80;;
38901;SDS011;24661;53.566;9.910;2023-05-10T11:11:35;8.23;;;6.33;;
38901;SDS011;24661;53.566;9.910;2023-05-10T11:14:04;9.30;;;7.53;;
38901;SDS011;24661;53.566;9.910;2023-05-10T11:16:41;8.03;;;6.57;;
38901;SDS011;24661;53.566;9.910;2023-05-10T11:19:12;7.97;;;6.47;;
38901;SDS011;24661;53.566;9.910;2023-05-10T11:21:48;11.80;;;7.13;;
38901;SDS011;24661;53.566;9.910;2023-05-10T11:24:38;10.17;;;7.20;;
38901;SDS011;24661;53.566;9.910;2023-05-10T11:27:03;8.83;;;7.50;;
38901;SDS011;24661;53.566;9.910;2023-05-10T11:29:31;9.60;;;7.90;;
38901;SDS011;24661;53.566;9.910;2023-05-10T11:31:57;8.10;;;7.17;;
38901;SDS011;24661;53.566;9.910;2023-05-10T11:34:30;11.60;;;7.73;;
38901;SDS011;24661;53.566;9.910;2023-05-10T11:36:58;9.33;;;7.43;;
38901;SDS011;24661;53.566;9.910;2023-05-10T11:39:28;8.23;;;6.77;;
38901;SDS011;24661;53.566;9.910;2023-05-10T11:41:55;8.17;;;7.20;;
38901;SDS011;24661;53.566;9.910;2023-05-10T11:44:21;12.50;;;8.47;;
38901;SDS011;24661;53.566;9.910;2023-05-10T11:46:48;8.53;;;6.60;;
38901;SDS011;24661;53.566;9.910;2023-05-10T11:49:14;9.57;;;7.97;;
38901;SDS011;24661;53.566;9.910;2023-05-10T11:51:39;9.57;;;7.87;;
38901;SDS011;24661;53.566;9.910;2023-05-10T11:54:07;7.60;;;6.80;;
38901;SDS011;24661;53.566;9.910;2023-05-10T11:56:34;12.57;;;7.93;;
38901;SDS011;24661;53.566;9.910;2023-05-10T11:58:59;11.63;;;8.43;;
38901;SDS011;24661;53.566;9.910;2023-05-10T12:01:27;9.77;;;7.47;;
38901;SDS011;24661;53.566;9.910;2023-05-10T12:03:54;11.30;;;8.03;;
38901;SDS011;24661;53.566;9.910;2023-05-10T12:06:25;10.57;;;8.87;;
38901;SDS011;24661;53.566;9.910;2023-05-10T12:08:52;10.00;;;7.73;;
38901;SDS011;24661;53.566;9.910;2023-05-10T12:11:18;13.73;;;7.47;;
38901;SDS011;24661;53.566;9.910;2023-05-10T12:13:46;8.63;;;7.20;;
38901;SDS011;24661;53.566;9.910;2023-05-10T12:16:22;9.70;;;6.33;;
38901;SDS011;24661;53.566;9.910;2023-05-10T12:18:50;8.10;;;6.27;;
38901;SDS011;24661;53.566;9.910;2023-05-10T12:21:18;7.43;;;6.57;;
38901;SDS011;24661;53.566;9.910;2023-05-10T12:23:45;9.43;;;6.47;;
38901;SDS011;24661;53.566;9.910;2023-05-10T12:26:12;9.90;;;7.40;;
38901;SDS011;24661;53.566;9.910;2023-05-10T12:28:38;11.27;;;7.60;;
38901;SDS011;24661;53.566;9.910;2023-05-10T12:31:06;7.80;;;7.00;;
38901;SDS011;24661;53.566;9.910;2023-05-10T12:33:36;10.33;;;8.07;;
38901;SDS011;24661;53.566;9.910;2023-05-10T12:36:07;10.60;;;8.60;;
38901;SDS011;24661;53.566;9.910;2023-05-10T12:38:35;11.17;;;8.47;;
38901;SDS011;24661;53.566;9.910;2023-05-10T12:41:07;11.67;;;9.13;;
38901;SDS011;24661;53.566;9.910;2023-05-10T12:43:34;9.53;;;8.03;;
38901;SDS011;24661;53.566;9.910;2023-05-10T12:46:16;9.90;;;7.77;;
38901;SDS011;24661;53.566;9.910;2023-05-10T12:48:42;11.00;;;8.73;;
38901;SDS011;24661;53.566;9.910;2023-05-10T12:51:09;10.27;;;7.60;;
38901;SDS011;24661;53.566;9.910;2023-05-10T12:53:38;8.60;;;6.60;;
38901;SDS011;24661;53.566;9.910;2023-05-10T12:56:04;8.77;;;7.17;;
38901;SDS011;24661;53.566;9.910;2023-05-10T12:58:30;10.20;;;6.17;;
38901;SDS011;24661;53.566;9.910;2023-05-10T13:00:56;10.70;;;7.37;;
38901;SDS011;24661;53.566;9.910;2023-05-10T13:03:22;8.97;;;6.63;;
38901;SDS011;24661;53.566;9.910;2023-05-10T13:05:48;6.43;;;5.30;;
38901;SDS011;24661;53.566;9.910;2023-05-10T13:08:14;6.13;;;4.97;;
38901;SDS011;24661;53.566;9.910;2023-05-10T13:10:39;7.17;;;6.07;;
38901;SDS011;24661;53.566;9.910;2023-05-10T13:13:05;8.43;;;7.63;;
38901;SDS011;24661;53.566;9.910;2023-05-10T13:15:32;8.33;;;7.10;;
38901;SDS011;24661;53.566;9.910;2023-05-10T13:17:58;8.37;;;7.37;;
38901;SDS011;24661;53.566;9.910;2023-05-10T13:20:24;9.07;;;8.07;;
38901;SDS011;24661;53.566;9.910;2023-05-10T13:22:50;9.20;;;7.87;;
38901;SDS011;24661;53.566;9.910;2023-05-10T13:25:16;8.93;;;6.73;;
38901;SDS011;24661;53.566;9.910;2023-05-10T13:27:42;8.13;;;7.07;;
38901;SDS011;24661;53.566;9.910;2023-05-10T13:30:08;8.10;;;6.20;;
38901;SDS011;24661;53.566;9.910;2023-05-10T13:32:36;11.20;;;6.33;;
38901;SDS011;24661;53.566;9.910;2023-05-10T13:35:02;8.03;;;7.23;;
38901;SDS011;24661;53.566;9.910;2023-05-10T13:37:30;8.90;;;7.67;;
38901;SDS011;24661;53.566;9.910;2023-05-10T13:39:57;8.87;;;6.93;;
38901;SDS011;24661;53.566;9.910;2023-05-10T13:42:23;10.07;;;7.23;;
38901;SDS011;24661;53.566;9.910;2023-05-10T13:44:49;11.43;;;6.67;;
38901;SDS011;24661;53.566;9.910;2023-05-10T13:47:15;7.60;;;5.83;;
38901;SDS011;24661;53.566;9.910;2023-05-10T13:49:41;7.03;;;6.40;;
38901;SDS011;24661;53.566;9.910;2023-05-10T13:52:07;8.53;;;6.73;;
38901;SDS011;24661;53.566;9.910;2023-05-10T13:54:36;6.77;;;6.00;;
38901;SDS011;24661;53.566;9.910;2023-05-10T13:57:02;10.90;;;7.73;;
38901;SDS011;24661;53.566;9.910;2023-05-10T13:59:29;8.30;;;7.43;;
38901;SDS011;24661;53.566;9.910;2023-05-10T14:01:56;8.93;;;6.80;;
38901;SDS011;24661;53.566;9.910;2023-05-10T14:04:23;8.27;;;7.47;;
38901;SDS011;24661;53.566;9.910;2023-05-10T14:06:51;10.60;;;8.03;;
38901;SDS011;24661;53.566;9.910;2023-05-10T14:09:18;9.53;;;8.60;;
38901;SDS011;24661;53.566;9.910;2023-05-10T14:11:44;7.73;;;6.67;;
38901;SDS011;24661;53.566;9.910;2023-05-10T14:14:10;8.47;;;7.60;;
38901;SDS011;24661;53.566;9.910;2023-05-10T14:16:37;8.57;;;7.00;;
38901;SDS011;24661;53.566;9.910;2023-05-10T14:19:03;10.23;;;6.90;;
38901;SDS011;24661;53.566;9.910;2023-05-10T14:21:29;8.87;;;7.97;;
38901;SDS011;24661;53.566;9.910;2023-05-10T14:23:55;11.30;;;7.93;;
38901;SDS011;24661;53.566;9.910;2023-05-10T14:26:21;7.13;;;6.47;;
38901;SDS011;24661;53.566;9.910;2023-05-10T14:28:47;7.20;;;6.50;;
38901;SDS011;24661;53.566;9.910;2023-05-10T14:31:13;7.80;;;6.57;;
38901;SDS011;24661;53.566;9.910;2023-05-10T14:33:39;7.00;;;6.30;;
38901;SDS011;24661;53.566;9.910;2023-05-10T14:36:06;9.83;;;7.37;;
38901;SDS011;24661;53.566;9.910;2023-05-10T14:38:32;7.70;;;6.03;;
38901;SDS011;24661;53.566;9.910;2023-05-10T14:40:58;8.53;;;7.33;;
38901;SDS011;24661;53.566;9.910;2023-05-10T14:43:23;8.20;;;7.23;;
38901;SDS011;24661;53.566;9.910;2023-05-10T14:45:52;9.40;;;7.13;;
38901;SDS011;24661;53.566;9.910;2023-05-10T14:48:18;7.23;;;6.53;;
38901;SDS011;24661;53.566;9.910;2023-05-10T14:50:44;7.90;;;6.60;;
38901;SDS011;24661;53.566;9.910;2023-05-10T14:53:11;10.07;;;6.93;;
38901;SDS011;24661;53.566;9.910;2023-05-10T14:55:37;8.07;;;5.70;;
38901;SDS011;24661;53.566;9.910;2023-05-10T14:58:03;6.50;;;5.90;;
38901;SDS011;24661;53.566;9.910;2023-05-10T15:00:29;6.97;;;6.27;;
38901;SDS011;24661;53.566;9.910;2023-05-10T15:02:55;8.20;;;7.00;;
38901;SDS011;24661;53.566;9.910;2023-05-10T15:05:21;5.87;;;5.27;;
38901;SDS011;24661;53.566;9.910;2023-05-10T15:07:47;7.97;;;7.13;;
38901;SDS011;24661;53.566;9.910;2023-05-10T15:10:12;9.50;;;7.20;;
38901;SDS011;24661;53.566;9.910;2023-05-10T15:12:39;9.60;;;7.57;;
38901;SDS011;24661;53.566;9.910;2023-05-10T15:15:05;8.87;;;7.00;;
38901;SDS011;24661;53.566;9.910;2023-05-10T15:17:31;7.30;;;6.20;;
38901;SDS011;24661;53.566;9.910;2023-05-10T15:19:57;9.67;;;6.70;;
38901;SDS011;24661;53.566;9.910;2023-05-10T15:22:23;6.73;;;6.03;;